sensor_id;sensor_type;location;lat;lon;timestamp;P1;durP1;ratioP1;P2;durP2;ratioP2
7773;SDS011;3931;42.260;23.116;2023-06-22T00:00:51;11.40;;;9.23;;
7773;SDS011;3931;42.260;23.116;2023-06-22T00:03:17;10.00;;;7.90;;
7773;SDS011;3931;42.260;23.116;2023-06-22T00:05:43;12.90;;;8.37;;
7773;SDS011;3931;42.260;23.116;2023-06-22T00:08:09;10.27;;;8.87;;
7773;SDS011;3931;42.260;23.116;2023-06-22T00:10:35;9.30;;;7.40;;
7773;SDS011;3931;42.260;23.116;2023-06-22T00:13:01;12.27;;;8.70;;
7773;SDS011;3931;42.260;23.116;2023-06-22T00:15:27;10.43;;;8.23;;
7773;SDS011;3931;42.260;23.116;2023-06-22T00:17:53;9.97;;;8.33;;
7773;SDS011;3931;42.260;23.116;2023-06-22T00:20:19;10.57;;;8.13;;
7773;SDS011;3931;42.260;23.116;2023-06-22T00:22:44;10.00;;;7.80;;
7773;SDS011;3931;42.260;23.116;2023-06-22T00:25:11;9.97;;;8.20;;
7773;SDS011;3931;42.260;23.116;2023-06-22T00:27:37;12.17;;;8.90;;
7773;SDS011;3931;42.260;23.116;2023-06-22T00:30:04;15.90;;;8.77;;
7773;SDS011;3931;42.260;23.116;2023-06-22T00:32:30;10.60;;;7.97;;
7773;SDS011;3931;42.260;23.116;2023-06-22T00:34:55;10.57;;;8.63;;
7773;SDS011;3931;42.260;23.116;2023-06-22T00:37:21;10.40;;;8.23;;
7773;SDS011;3931;42.260;23.116;2023-06-22T00:39:50;16.30;;;9.03;;
7773;SDS011;3931;42.260;23.116;2023-06-22T00:42:16;13.33;;;9.10;;
7773;SDS011;3931;42.260;23.116;2023-06-22T00:44:42;11.47;;;9.53;;
7773;SDS011;3931;42.260;23.116;2023-06-22T00:47:09;12.13;;;8.70;;
7773;SDS011;3931;42.260;23.116;2023-06-22T00:49:35;10.13;;;8.53;;
7773;SDS011;3931;42.260;23.116;2023-06-22T00:52:01;12.23;;;9.17;;
7773;SDS011;3931;42.260;23.116;2023-06-22T00:54:27;10.20;;;8.30;;
7773;SDS011;3931;42.260;23.116;2023-06-22T00:56:53;13.83;;;9.63;;
7773;SDS011;3931;42.260;23.116;2023-06-22T00:59:21;13.33;;;8.47;;
7773;SDS011;3931;42.260;23.116;2023-06-22T01:01:47;16.30;;;9.30;;
7773;SDS011;3931;42.260;23.116;2023-06-22T01:04:13;10.10;;;8.80;;
7773;SDS011;3931;42.260;23.116;2023-06-22T01:06:41;11.30;;;8.43;;
7773;SDS011;3931;42.260;23.116;2023-06-22T01:09:11;12.97;;;8.40;;
7773;SDS011;3931;42.260;23.116;2023-06-22T01:11:41;12.97;;;8.67;;
7773;SDS011;3931;42.260;23.116;2023-06-22T01:14:11;11.00;;;8.23;;
7773;SDS011;3931;42.260;23.116;2023-06-22T01:16:40;9.00;;;7.50;;
7773;SDS011;3931;42.260;23.116;2023-06-22T01:19:17;11.67;;;7.77;;
7773;SDS011;3931;42.260;23.116;2023-06-22T01:21:46;8.97;;;8.03;;
7773;SDS011;3931;42.260;23.116;2023-06-22T01:24:15;9.97;;;7.80;;
7773;SDS011;3931;42.260;23.116;2023-06-22T01:26:53;12.87;;;8.13;;
7773;SDS011;3931;42.260;23.116;2023-06-22T01:29:21;16.63;;;8.23;;
7773;SDS011;3931;42.260;23.116;2023-06-22T01:31:46;11.00;;;8.10;;
7773;SDS011;3931;42.260;23.116;2023-06-22T01:34:13;12.70;;;8.20;;
7773;SDS011;3931;42.260;23.116;2023-06-22T01:36:40;12.83;;;9.17;;
7773;SDS011;3931;42.260;23.116;2023-06-22T01:39:06;17.00;;;9.00;;
7773;SDS011;3931;42.260;23.116;2023-06-22T01:41:33;13.90;;;8.70;;
7773;SDS011;3931;42.260;23.116;2023-06-22T01:43:59;9.93;;;8.13;;
7773;SDS011;3931;42.260;23.116;2023-06-22T01:46:27;9.93;;;7.90;;
7773;SDS011;3931;42.260;23.116;2023-06-22T01:48:52;13.87;;;8.60;;
7773;SDS011;3931;42.260;23.116;2023-06-22T01:51:18;12.33;;;7.70;;
7773;SDS011;3931;42.260;23.116;2023-06-22T01:53:44;14.80;;;8.20;;
7773;SDS011;3931;42.260;23.116;2023-06-22T01:56:11;15.10;;;9.17;;
7773;SDS011;3931;42.260;23.116;2023-06-22T01:58:38;10.33;;;8.70;;
7773;SDS011;3931;42.260;23.116;2023-06-22T02:01:09;11.90;;;8.47;;
7773;SDS011;3931;42.260;23.116;2023-06-22T02:03:37;12.33;;;7.70;;
7773;SDS011;3931;42.260;23.116;2023-06-22T02:06:05;12.97;;;7.83;;
7773;SDS011;3931;42.260;23.116;2023-06-22T02:08:33;10.43;;;9.17;;
7773;SDS011;3931;42.260;23.116;2023-06-22T02:11:00;13.53;;;9.80;;
7773;SDS011;3931;42.260;23.116;2023-06-22T02:13:27;13.80;;;8.80;;
7773;SDS011;3931;42.260;23.116;2023-06-22T02:15:53;11.10;;;9.30;;
7773;SDS011;3931;42.260;23.116;2023-06-22T02:18:19;12.60;;;8.83;;
7773;SDS011;3931;42.260;23.116;2023-06-22T02:20:46;12.77;;;9.03;;
7773;SDS011;3931;42.260;23.116;2023-06-22T02:23:12;9.80;;;8.63;;
7773;SDS011;3931;42.260;23.116;2023-06-22T02:25:37;10.13;;;8.53;;
7773;SDS011;3931;42.260;23.116;2023-06-22T02:28:04;12.30;;;8.27;;
7773;SDS011;3931;42.260;23.116;2023-06-22T02:30:31;11.40;;;8.87;;
7773;SDS011;3931;42.260;23.116;2023-06-22T02:32:57;9.93;;;8.93;;
7773;SDS011;3931;42.260;23.116;2023-06-22T02:35:24;13.03;;;9.30;;
7773;SDS011;3931;42.260;23.116;2023-06-22T02:37:50;12.50;;;9.30;;
7773;SDS011;3931;42.260;23.116;2023-06-22T02:40:16;9.63;;;8.63;;
7773;SDS011;3931;42.260;23.116;2023-06-22T02:42:42;11.10;;;8.27;;
7773;SDS011;3931;42.260;23.116;2023-06-22T02:45:08;11.90;;;9.23;;
7773;SDS011;3931;42.260;23.116;2023-06-22T02:47:34;10.03;;;8.70;;
7773;SDS011;3931;42.260;23.116;2023-06-22T02:50:00;15.47;;;8.93;;
7773;SDS011;3931;42.260;23.116;2023-06-22T02:52:26;12.60;;;8.80;;
7773;SDS011;3931;42.260;23.116;2023-06-22T02:54:52;11.67;;;9.90;;
7773;SDS011;3931;42.260;23.116;2023-06-22T02:57:18;11.07;;;8.70;;
7773;SDS011;3931;42.260;23.116;2023-06-22T02:59:44;11.87;;;8.57;;
7773;SDS011;3931;42.260;23.116;2023-06-22T03:02:09;16.00;;;9.40;;
7773;SDS011;3931;42.260;23.116;2023-06-22T03:04:36;13.43;;;8.37;;
7773;SDS011;3931;42.260;23.116;2023-06-22T03:07:02;11.10;;;9.40;;
7773;SDS011;3931;42.260;23.116;2023-06-22T03:09:28;15.83;;;10.80;;
7773;SDS011;3931;42.260;23.116;2023-06-22T03:11:54;12.20;;;9.53;;
7773;SDS011;3931;42.260;23.116;2023-06-22T03:14:20;11.93;;;9.10;;
7773;SDS011;3931;42.260;23.116;2023-06-22T03:16:46;17.50;;;9.60;;
7773;SDS011;3931;42.260;23.116;2023-06-22T03:19:12;17.33;;;9.87;;
7773;SDS011;3931;42.260;23.116;2023-06-22T03:21:38;13.03;;;9.60;;
7773;SDS011;3931;42.260;23.116;2023-06-22T03:24:04;14.13;;;8.80;;
7773;SDS011;3931;42.260;23.116;2023-06-22T03:26:30;12.27;;;9.13;;
7773;SDS011;3931;42.260;23.116;2023-06-22T03:28:56;12.57;;;10.00;;
7773;SDS011;3931;42.260;23.116;2023-06-22T03:31:22;13.40;;;9.27;;
7773;SDS011;3931;42.260;23.116;2023-06-22T03:33:48;12.47;;;8.83;;
7773;SDS011;3931;42.260;23.116;2023-06-22T03:36:14;13.07;;;10.00;;
7773;SDS011;3931;42.260;23.116;2023-06-22T03:38:41;14.10;;;9.40;;
7773;SDS011;3931;42.260;23.116;2023-06-22T03:41:07;11.23;;;9.40;;
7773;SDS011;3931;42.260;23.116;2023-06-22T03:43:33;12.23;;;9.47;;
7773;SDS011;3931;42.260;23.116;2023-06-22T03:45:59;12.73;;;8.70;;
7773;SDS011;3931;42.260;23.116;2023-06-22T03:48:25;14.37;;;8.70;;
7773;SDS011;3931;42.260;23.116;2023-06-22T03:50:50;16.90;;;9.30;;
7773;SDS011;3931;42.260;23.116;2023-06-22T03:53:16;12.70;;;9.73;;
7773;SDS011;3931;42.260;23.116;2023-06-22T03:55:47;33.57;;;10.60;;
7773;SDS011;3931;42.260;23.116;2023-06-22T03:58:13;13.90;;;8.97;;
7773;SDS011;3931;42.260;23.116;2023-06-22T04:00:39;17.03;;;10.87;;
7773;SDS011;3931;42.260;23.116;2023-06-22T04:03:05;13.50;;;10.17;;
7773;SDS011;3931;42.260;23.116;2023-06-22T04:05:32;16.90;;;9.57;;
7773;SDS011;3931;42.260;23.116;2023-06-22T04:07:58;19.13;;;9.83;;
7773;SDS011;3931;42.260;23.116;2023-06-22T04:10:24;16.43;;;10.50;;
7773;SDS011;3931;42.260;23.116;2023-06-22T04:12:49;15.53;;;10.83;;
7773;SDS011;3931;42.260;23.116;2023-06-22T04:15:15;20.13;;;11.80;;
7773;SDS011;3931;42.260;23.116;2023-06-22T04:17:41;22.53;;;11.83;;
7773;SDS011;3931;42.260;23.116;2023-06-22T04:20:08;14.20;;;10.47;;
7773;SDS011;3931;42.260;23.116;2023-06-22T04:22:34;14.47;;;11.73;;
7773;SDS011;3931;42.260;23.116;2023-06-22T04:25:00;14.33;;;11.17;;
7773;SDS011;3931;42.260;23.116;2023-06-22T04:27:25;17.13;;;11.90;;
7773;SDS011;3931;42.260;23.116;2023-06-22T04:29:51;25.13;;;12.00;;
7773;SDS011;3931;42.260;23.116;2023-06-22T04:32:17;15.27;;;12.33;;
7773;SDS011;3931;42.260;23.116;2023-06-22T04:34:43;21.27;;;13.10;;
7773;SDS011;3931;42.260;23.116;2023-06-22T04:37:10;15.90;;;12.80;;
7773;SDS011;3931;42.260;23.116;2023-06-22T04:39:40;17.23;;;12.60;;
7773;SDS011;3931;42.260;23.116;2023-06-22T04:42:06;15.00;;;12.83;;
7773;SDS011;3931;42.260;23.116;2023-06-22T04:44:32;19.60;;;13.50;;
7773;SDS011;3931;42.260;23.116;2023-06-22T04:46:58;20.17;;;12.90;;
7773;SDS011;3931;42.260;23.116;2023-06-22T04:49:25;25.73;;;13.10;;
7773;SDS011;3931;42.260;23.116;2023-06-22T04:51:57;19.77;;;13.80;;
7773;SDS011;3931;42.260;23.116;2023-06-22T04:54:24;19.73;;;13.27;;
7773;SDS011;3931;42.260;23.116;2023-06-22T04:56:49;19.90;;;13.47;;
7773;SDS011;3931;42.260;23.116;2023-06-22T04:59:21;22.13;;;12.80;;
7773;SDS011;3931;42.260;23.116;2023-06-22T05:01:47;19.90;;;12.23;;
7773;SDS011;3931;42.260;23.116;2023-06-22T05:04:13;14.53;;;11.67;;
7773;SDS011;3931;42.260;23.116;2023-06-22T05:06:38;19.77;;;12.30;;
7773;SDS011;3931;42.260;23.116;2023-06-22T05:09:04;14.83;;;12.20;;
7773;SDS011;3931;42.260;23.116;2023-06-22T05:11:31;13.20;;;11.33;;
7773;SDS011;3931;42.260;23.116;2023-06-22T05:13:57;14.83;;;12.10;;
7773;SDS011;3931;42.260;23.116;2023-06-22T05:16:22;16.37;;;12.93;;
7773;SDS011;3931;42.260;23.116;2023-06-22T05:18:50;15.70;;;12.33;;
7773;SDS011;3931;42.260;23.116;2023-06-22T05:21:15;19.33;;;11.23;;
7773;SDS011;3931;42.260;23.116;2023-06-22T05:23:41;26.77;;;11.93;;
7773;SDS011;3931;42.260;23.116;2023-06-22T05:26:07;23.20;;;13.13;;
7773;SDS011;3931;42.260;23.116;2023-06-22T05:28:35;25.60;;;12.60;;
7773;SDS011;3931;42.260;23.116;2023-06-22T05:31:01;33.07;;;12.80;;
7773;SDS011;3931;42.260;23.116;2023-06-22T05:33:27;18.70;;;12.13;;
7773;SDS011;3931;42.260;23.116;2023-06-22T05:35:52;35.30;;;12.13;;
7773;SDS011;3931;42.260;23.116;2023-06-22T05:38:18;19.07;;;11.60;;
7773;SDS011;3931;42.260;23.116;2023-06-22T05:40:44;23.80;;;11.23;;
7773;SDS011;3931;42.260;23.116;2023-06-22T05:43:10;22.33;;;12.40;;
7773;SDS011;3931;42.260;23.116;2023-06-22T05:45:36;14.77;;;10.73;;
7773;SDS011;3931;42.260;23.116;2023-06-22T05:48:02;17.53;;;11.43;;
7773;SDS011;3931;42.260;23.116;2023-06-22T05:50:28;15.93;;;11.33;;
7773;SDS011;3931;42.260;23.116;2023-06-22T05:52:53;18.63;;;11.87;;
7773;SDS011;3931;42.260;23.116;2023-06-22T05:55:19;19.23;;;12.30;;
7773;SDS011;3931;42.260;23.116;2023-06-22T05:57:45;16.40;;;13.60;;
7773;SDS011;3931;42.260;23.116;2023-06-22T06:00:11;19.70;;;12.70;;
7773;SDS011;3931;42.260;23.116;2023-06-22T06:02:39;19.43;;;12.77;;
7773;SDS011;3931;42.260;23.116;2023-06-22T06:05:08;14.90;;;11.57;;
7773;SDS011;3931;42.260;23.116;2023-06-22T06:07:34;16.67;;;12.30;;
7773;SDS011;3931;42.260;23.116;2023-06-22T06:10:00;18.13;;;11.70;;
7773;SDS011;3931;42.260;23.116;2023-06-22T06:12:26;18.90;;;11.43;;
7773;SDS011;3931;42.260;23.116;2023-06-22T06:14:51;13.90;;;11.20;;
7773;SDS011;3931;42.260;23.116;2023-06-22T06:17:18;16.20;;;11.80;;
7773;SDS011;3931;42.260;23.116;2023-06-22T06:19:45;20.43;;;12.63;;
7773;SDS011;3931;42.260;23.116;2023-06-22T06:22:10;19.40;;;12.00;;
7773;SDS011;3931;42.260;23.116;2023-06-22T06:24:36;21.03;;;12.67;;
7773;SDS011;3931;42.260;23.116;2023-06-22T06:27:02;22.30;;;12.40;;
7773;SDS011;3931;42.260;23.116;2023-06-22T06:29:29;18.47;;;10.80;;
7773;SDS011;3931;42.260;23.116;2023-06-22T06:31:55;16.50;;;10.90;;
7773;SDS011;3931;42.260;23.116;2023-06-22T06:34:22;13.90;;;10.27;;
7773;SDS011;3931;42.260;23.116;2023-06-22T06:36:49;14.63;;;11.00;;
7773;SDS011;3931;42.260;23.116;2023-06-22T06:39:15;12.93;;;10.20;;
7773;SDS011;3931;42.260;23.116;2023-06-22T06:41:41;14.60;;;10.27;;
7773;SDS011;3931;42.260;23.116;2023-06-22T06:44:07;12.77;;;10.73;;
7773;SDS011;3931;42.260;23.116;2023-06-22T06:46:33;14.00;;;9.80;;
7773;SDS011;3931;42.260;23.116;2023-06-22T06:48:58;14.33;;;11.50;;
7773;SDS011;3931;42.260;23.116;2023-06-22T06:51:24;15.13;;;10.87;;
7773;SDS011;3931;42.260;23.116;2023-06-22T06:53:51;13.37;;;11.77;;
7773;SDS011;3931;42.260;23.116;2023-06-22T06:56:16;17.50;;;11.20;;
7773;SDS011;3931;42.260;23.116;2023-06-22T06:58:42;12.60;;;10.87;;
7773;SDS011;3931;42.260;23.116;2023-06-22T07:01:10;13.00;;;11.30;;
7773;SDS011;3931;42.260;23.116;2023-06-22T07:03:35;13.77;;;10.07;;
7773;SDS011;3931;42.260;23.116;2023-06-22T07:06:01;16.43;;;10.30;;
7773;SDS011;3931;42.260;23.116;2023-06-22T07:08:27;23.10;;;10.90;;
7773;SDS011;3931;42.260;23.116;2023-06-22T07:10:54;13.03;;;11.70;;
7773;SDS011;3931;42.260;23.116;2023-06-22T07:13:19;14.70;;;10.60;;
7773;SDS011;3931;42.260;23.116;2023-06-22T07:15:45;20.30;;;10.67;;
7773;SDS011;3931;42.260;23.116;2023-06-22T07:18:11;16.40;;;11.90;;
7773;SDS011;3931;42.260;23.116;2023-06-22T07:20:37;25.50;;;11.80;;
7773;SDS011;3931;42.260;23.116;2023-06-22T07:23:04;15.83;;;10.80;;
7773;SDS011;3931;42.260;23.116;2023-06-22T07:25:30;14.50;;;10.70;;
7773;SDS011;3931;42.260;23.116;2023-06-22T07:27:57;23.37;;;11.77;;
7773;SDS011;3931;42.260;23.116;2023-06-22T07:30:23;19.43;;;12.30;;
7773;SDS011;3931;42.260;23.116;2023-06-22T07:32:49;22.33;;;13.10;;
7773;SDS011;3931;42.260;23.116;2023-06-22T07:35:15;15.37;;;11.63;;
7773;SDS011;3931;42.260;23.116;2023-06-22T07:37:41;13.80;;;11.10;;
7773;SDS011;3931;42.260;23.116;2023-06-22T07:40:08;13.90;;;11.03;;
7773;SDS011;3931;42.260;23.116;2023-06-22T07:42:34;15.00;;;11.33;;
7773;SDS011;3931;42.260;23.116;2023-06-22T07:45:01;13.13;;;11.70;;
7773;SDS011;3931;42.260;23.116;2023-06-22T07:47:27;15.50;;;11.37;;
7773;SDS011;3931;42.260;23.116;2023-06-22T07:49:53;31.70;;;11.40;;
7773;SDS011;3931;42.260;23.116;2023-06-22T07:52:20;17.37;;;10.43;;
7773;SDS011;3931;42.260;23.116;2023-06-22T07:54:46;19.07;;;11.03;;
7773;SDS011;3931;42.260;23.116;2023-06-22T07:57:12;25.43;;;11.60;;
7773;SDS011;3931;42.260;23.116;2023-06-22T07:59:38;16.90;;;10.43;;
7773;SDS011;3931;42.260;23.116;2023-06-22T08:02:04;14.37;;;11.87;;
7773;SDS011;3931;42.260;23.116;2023-06-22T08:04:30;13.10;;;11.60;;
7773;SDS011;3931;42.260;23.116;2023-06-22T08:06:56;17.93;;;10.50;;
7773;SDS011;3931;42.260;23.116;2023-06-22T08:09:22;15.53;;;12.30;;
7773;SDS011;3931;42.260;23.116;2023-06-22T08:11:48;20.20;;;11.70;;
7773;SDS011;3931;42.260;23.116;2023-06-22T08:14:14;30.10;;;13.80;;
7773;SDS011;3931;42.260;23.116;2023-06-22T08:16:40;17.73;;;11.77;;
7773;SDS011;3931;42.260;23.116;2023-06-22T08:19:07;13.48;;;10.55;;
7773;SDS011;3931;42.260;23.116;2023-06-22T08:21:32;26.77;;;11.00;;
7773;SDS011;3931;42.260;23.116;2023-06-22T08:23:58;28.33;;;13.88;;
7773;SDS011;3931;42.260;23.116;2023-06-22T08:26:24;22.27;;;13.27;;
7773;SDS011;3931;42.260;23.116;2023-06-22T08:28:50;20.55;;;11.68;;
7773;SDS011;3931;42.260;23.116;2023-06-22T08:31:15;17.30;;;10.77;;
7773;SDS011;3931;42.260;23.116;2023-06-22T08:33:41;16.35;;;10.00;;
7773;SDS011;3931;42.260;23.116;2023-06-22T08:36:09;16.67;;;9.52;;
7773;SDS011;3931;42.260;23.116;2023-06-22T08:38:36;14.77;;;10.48;;
7773;SDS011;3931;42.260;23.116;2023-06-22T08:41:01;13.98;;;11.05;;
7773;SDS011;3931;42.260;23.116;2023-06-22T08:43:28;17.77;;;10.55;;
7773;SDS011;3931;42.260;23.116;2023-06-22T08:45:53;14.13;;;10.02;;
7773;SDS011;3931;42.260;23.116;2023-06-22T08:48:19;14.50;;;9.63;;
7773;SDS011;3931;42.260;23.116;2023-06-22T08:50:45;14.48;;;9.65;;
7773;SDS011;3931;42.260;23.116;2023-06-22T08:53:11;19.80;;;9.70;;
7773;SDS011;3931;42.260;23.116;2023-06-22T08:55:38;12.48;;;10.25;;
7773;SDS011;3931;42.260;23.116;2023-06-22T08:58:03;17.13;;;10.27;;
7773;SDS011;3931;42.260;23.116;2023-06-22T09:00:29;37.35;;;10.85;;
7773;SDS011;3931;42.260;23.116;2023-06-22T09:02:57;18.98;;;9.18;;
7773;SDS011;3931;42.260;23.116;2023-06-22T09:05:24;12.40;;;9.07;;
7773;SDS011;3931;42.260;23.116;2023-06-22T09:07:50;12.60;;;10.05;;
7773;SDS011;3931;42.260;23.116;2023-06-22T09:10:16;10.10;;;9.07;;
7773;SDS011;3931;42.260;23.116;2023-06-22T09:12:42;9.73;;;8.20;;
7773;SDS011;3931;42.260;23.116;2023-06-22T09:15:08;12.52;;;7.63;;
7773;SDS011;3931;42.260;23.116;2023-06-22T09:17:35;8.05;;;7.25;;
7773;SDS011;3931;42.260;23.116;2023-06-22T09:20:01;9.68;;;8.00;;
7773;SDS011;3931;42.260;23.116;2023-06-22T09:22:30;8.77;;;5.75;;
7773;SDS011;3931;42.260;23.116;2023-06-22T09:24:56;11.27;;;6.03;;
7773;SDS011;3931;42.260;23.116;2023-06-22T09:27:23;9.13;;;6.20;;
7773;SDS011;3931;42.260;23.116;2023-06-22T09:29:48;10.00;;;6.85;;
7773;SDS011;3931;42.260;23.116;2023-06-22T09:32:14;7.25;;;6.30;;
7773;SDS011;3931;42.260;23.116;2023-06-22T09:34:40;9.95;;;6.03;;
7773;SDS011;3931;42.260;23.116;2023-06-22T09:37:06;8.65;;;6.75;;
7773;SDS011;3931;42.260;23.116;2023-06-22T09:39:32;7.35;;;6.65;;
7773;SDS011;3931;42.260;23.116;2023-06-22T09:41:58;6.80;;;6.10;;
7773;SDS011;3931;42.260;23.116;2023-06-22T09:44:25;7.68;;;6.88;;
7773;SDS011;3931;42.260;23.116;2023-06-22T09:46:51;8.43;;;7.07;;
7773;SDS011;3931;42.260;23.116;2023-06-22T09:49:16;10.32;;;6.35;;
7773;SDS011;3931;42.260;23.116;2023-06-22T09:51:42;9.00;;;6.40;;
7773;SDS011;3931;42.260;23.116;2023-06-22T09:54:08;7.10;;;5.68;;
7773;SDS011;3931;42.260;23.116;2023-06-22T09:56:34;8.85;;;6.10;;
7773;SDS011;3931;42.260;23.116;2023-06-22T09:58:59;8.40;;;6.45;;
7773;SDS011;3931;42.260;23.116;2023-06-22T10:01:26;9.13;;;6.50;;
7773;SDS011;3931;42.260;23.116;2023-06-22T10:03:52;15.98;;;7.22;;
7773;SDS011;3931;42.260;23.116;2023-06-22T10:06:19;8.35;;;6.47;;
7773;SDS011;3931;42.260;23.116;2023-06-22T10:08:45;8.85;;;6.05;;
7773;SDS011;3931;42.260;23.116;2023-06-22T10:11:11;7.22;;;6.43;;
7773;SDS011;3931;42.260;23.116;2023-06-22T10:13:37;12.75;;;6.60;;
7773;SDS011;3931;42.260;23.116;2023-06-22T10:16:02;16.58;;;7.85;;
7773;SDS011;3931;42.260;23.116;2023-06-22T10:18:29;9.35;;;6.82;;
7773;SDS011;3931;42.260;23.116;2023-06-22T10:20:55;10.88;;;6.20;;
7773;SDS011;3931;42.260;23.116;2023-06-22T10:23:22;8.95;;;6.50;;
7773;SDS011;3931;42.260;23.116;2023-06-22T10:25:47;7.68;;;6.88;;
7773;SDS011;3931;42.260;23.116;2023-06-22T10:28:13;8.18;;;6.22;;
7773;SDS011;3931;42.260;23.116;2023-06-22T10:30:39;7.10;;;6.45;;
7773;SDS011;3931;42.260;23.116;2023-06-22T10:33:06;8.98;;;7.05;;
7773;SDS011;3931;42.260;23.116;2023-06-22T10:35:32;9.15;;;7.28;;
7773;SDS011;3931;42.260;23.116;2023-06-22T10:37:58;9.65;;;6.68;;
7773;SDS011;3931;42.260;23.116;2023-06-22T10:40:25;7.40;;;6.70;;
7773;SDS011;3931;42.260;23.116;2023-06-22T10:42:51;14.02;;;6.10;;
7773;SDS011;3931;42.260;23.116;2023-06-22T10:45:16;8.73;;;6.75;;
7773;SDS011;3931;42.260;23.116;2023-06-22T10:47:42;9.60;;;7.93;;
7773;SDS011;3931;42.260;23.116;2023-06-22T10:50:08;39.42;;;8.60;;
7773;SDS011;3931;42.260;23.116;2023-06-22T10:52:35;11.13;;;7.40;;
7773;SDS011;3931;42.260;23.116;2023-06-22T10:55:00;11.88;;;7.38;;
7773;SDS011;3931;42.260;23.116;2023-06-22T10:57:26;11.27;;;6.50;;
7773;SDS011;3931;42.260;23.116;2023-06-22T10:59:52;37.85;;;13.82;;
7773;SDS011;3931;42.260;23.116;2023-06-22T11:02:18;12.82;;;8.48;;
7773;SDS011;3931;42.260;23.116;2023-06-22T11:04:43;9.30;;;7.55;;
7773;SDS011;3931;42.260;23.116;2023-06-22T11:07:09;8.57;;;7.15;;
7773;SDS011;3931;42.260;23.116;2023-06-22T11:09:36;14.73;;;7.57;;
7773;SDS011;3931;42.260;23.116;2023-06-22T11:12:03;9.52;;;7.00;;
7773;SDS011;3931;42.260;23.116;2023-06-22T11:14:29;9.20;;;7.65;;
7773;SDS011;3931;42.260;23.116;2023-06-22T11:16:55;13.88;;;7.68;;
7773;SDS011;3931;42.260;23.116;2023-06-22T11:19:21;10.20;;;8.05;;
7773;SDS011;3931;42.260;23.116;2023-06-22T11:21:47;11.93;;;7.72;;
7773;SDS011;3931;42.260;23.116;2023-06-22T11:24:12;15.75;;;7.35;;
7773;SDS011;3931;42.260;23.116;2023-06-22T11:26:39;9.68;;;7.70;;
7773;SDS011;3931;42.260;23.116;2023-06-22T11:29:05;11.32;;;7.43;;
7773;SDS011;3931;42.260;23.116;2023-06-22T11:31:30;8.05;;;7.25;;
7773;SDS011;3931;42.260;23.116;2023-06-22T11:33:56;9.05;;;7.25;;
7773;SDS011;3931;42.260;23.116;2023-06-22T11:36:22;7.75;;;7.03;;
7773;SDS011;3931;42.260;23.116;2023-06-22T11:38:48;10.30;;;7.18;;
7773;SDS011;3931;42.260;23.116;2023-06-22T11:41:14;7.95;;;7.13;;
7773;SDS011;3931;42.260;23.116;2023-06-22T11:43:40;8.68;;;6.97;;
7773;SDS011;3931;42.260;23.116;2023-06-22T11:46:06;9.05;;;8.02;;
7773;SDS011;3931;42.260;23.116;2023-06-22T11:48:31;10.38;;;8.10;;
7773;SDS011;3931;42.260;23.116;2023-06-22T11:50:57;10.85;;;7.60;;
7773;SDS011;3931;42.260;23.116;2023-06-22T11:53:24;12.60;;;7.93;;
7773;SDS011;3931;42.260;23.116;2023-06-22T11:55:50;12.43;;;9.15;;
7773;SDS011;3931;42.260;23.116;2023-06-22T11:58:16;10.57;;;8.02;;
7773;SDS011;3931;42.260;23.116;2023-06-22T12:00:42;10.38;;;8.43;;
7773;SDS011;3931;42.260;23.116;2023-06-22T12:03:08;18.83;;;10.27;;
7773;SDS011;3931;42.260;23.116;2023-06-22T12:05:34;10.48;;;8.60;;
7773;SDS011;3931;42.260;23.116;2023-06-22T12:08:00;12.57;;;8.52;;
7773;SDS011;3931;42.260;23.116;2023-06-22T12:10:26;10.38;;;8.57;;
7773;SDS011;3931;42.260;23.116;2023-06-22T12:12:53;26.17;;;7.80;;
7773;SDS011;3931;42.260;23.116;2023-06-22T12:15:19;8.77;;;7.88;;
7773;SDS011;3931;42.260;23.116;2023-06-22T12:17:45;10.80;;;7.68;;
7773;SDS011;3931;42.260;23.116;2023-06-22T12:20:13;9.95;;;8.13;;
7773;SDS011;3931;42.260;23.116;2023-06-22T12:22:39;13.75;;;8.48;;
7773;SDS011;3931;42.260;23.116;2023-06-22T12:25:05;10.80;;;7.47;;
7773;SDS011;3931;42.260;23.116;2023-06-22T12:27:31;15.95;;;8.48;;
7773;SDS011;3931;42.260;23.116;2023-06-22T12:29:56;12.77;;;8.40;;
7773;SDS011;3931;42.260;23.116;2023-06-22T12:32:22;9.35;;;8.45;;
7773;SDS011;3931;42.260;23.116;2023-06-22T12:34:49;8.93;;;8.02;;
7773;SDS011;3931;42.260;23.116;2023-06-22T12:37:14;12.35;;;8.70;;
7773;SDS011;3931;42.260;23.116;2023-06-22T12:39:40;9.80;;;7.95;;
7773;SDS011;3931;42.260;23.116;2023-06-22T12:42:07;11.00;;;8.55;;
7773;SDS011;3931;42.260;23.116;2023-06-22T12:44:34;12.02;;;9.05;;
7773;SDS011;3931;42.260;23.116;2023-06-22T12:46:59;9.40;;;7.75;;
7773;SDS011;3931;42.260;23.116;2023-06-22T12:49:25;11.93;;;7.85;;
7773;SDS011;3931;42.260;23.116;2023-06-22T12:51:52;12.85;;;7.28;;
7773;SDS011;3931;42.260;23.116;2023-06-22T12:54:17;18.63;;;7.97;;
7773;SDS011;3931;42.260;23.116;2023-06-22T12:56:43;18.40;;;8.48;;
7773;SDS011;3931;42.260;23.116;2023-06-22T12:59:10;14.88;;;9.20;;
7773;SDS011;3931;42.260;23.116;2023-06-22T13:01:36;11.60;;;8.07;;
7773;SDS011;3931;42.260;23.116;2023-06-22T13:04:02;11.95;;;8.50;;
7773;SDS011;3931;42.260;23.116;2023-06-22T13:06:28;26.38;;;8.00;;
7773;SDS011;3931;42.260;23.116;2023-06-22T13:08:54;12.13;;;7.97;;
7773;SDS011;3931;42.260;23.116;2023-06-22T13:11:20;10.18;;;8.68;;
7773;SDS011;3931;42.260;23.116;2023-06-22T13:13:46;11.88;;;6.63;;
7773;SDS011;3931;42.260;23.116;2023-06-22T13:16:11;7.97;;;5.97;;
7773;SDS011;3931;42.260;23.116;2023-06-22T13:18:37;13.02;;;6.15;;
7773;SDS011;3931;42.260;23.116;2023-06-22T13:21:03;9.70;;;6.35;;
7773;SDS011;3931;42.260;23.116;2023-06-22T13:23:29;12.63;;;5.90;;
7773;SDS011;3931;42.260;23.116;2023-06-22T13:25:57;27.73;;;7.63;;
7773;SDS011;3931;42.260;23.116;2023-06-22T13:28:22;11.38;;;6.70;;
7773;SDS011;3931;42.260;23.116;2023-06-22T13:30:48;21.83;;;7.45;;
7773;SDS011;3931;42.260;23.116;2023-06-22T13:33:14;25.17;;;9.73;;
7773;SDS011;3931;42.260;23.116;2023-06-22T13:35:40;16.23;;;7.70;;
7773;SDS011;3931;42.260;23.116;2023-06-22T13:38:07;25.07;;;9.13;;
7773;SDS011;3931;42.260;23.116;2023-06-22T13:40:33;26.80;;;9.00;;
7773;SDS011;3931;42.260;23.116;2023-06-22T13:43:00;19.03;;;8.70;;
7773;SDS011;3931;42.260;23.116;2023-06-22T13:45:26;17.93;;;8.23;;
7773;SDS011;3931;42.260;23.116;2023-06-22T13:47:51;12.93;;;7.53;;
7773;SDS011;3931;42.260;23.116;2023-06-22T13:50:17;16.70;;;8.70;;
7773;SDS011;3931;42.260;23.116;2023-06-22T13:52:43;13.23;;;8.00;;
7773;SDS011;3931;42.260;23.116;2023-06-22T13:55:09;17.03;;;7.70;;
7773;SDS011;3931;42.260;23.116;2023-06-22T13:57:35;19.33;;;8.07;;
7773;SDS011;3931;42.260;23.116;2023-06-22T14:00:01;15.80;;;8.80;;
7773;SDS011;3931;42.260;23.116;2023-06-22T14:02:28;26.10;;;8.37;;
7773;SDS011;3931;42.260;23.116;2023-06-22T14:04:54;14.43;;;7.10;;
7773;SDS011;3931;42.260;23.116;2023-06-22T14:07:20;12.50;;;7.87;;
7773;SDS011;3931;42.260;23.116;2023-06-22T14:09:46;11.20;;;8.00;;
7773;SDS011;3931;42.260;23.116;2023-06-22T14:12:12;12.40;;;9.10;;
7773;SDS011;3931;42.260;23.116;2023-06-22T14:14:38;10.93;;;8.63;;
7773;SDS011;3931;42.260;23.116;2023-06-22T14:17:05;12.90;;;8.40;;
7773;SDS011;3931;42.260;23.116;2023-06-22T14:19:31;10.20;;;8.70;;
7773;SDS011;3931;42.260;23.116;2023-06-22T14:21:57;17.97;;;8.13;;
7773;SDS011;3931;42.260;23.116;2023-06-22T14:24:22;11.63;;;8.50;;
7773;SDS011;3931;42.260;23.116;2023-06-22T14:26:48;12.73;;;7.07;;
7773;SDS011;3931;42.260;23.116;2023-06-22T14:29:14;9.50;;;7.70;;
7773;SDS011;3931;42.260;23.116;2023-06-22T14:31:40;9.00;;;6.93;;
7773;SDS011;3931;42.260;23.116;2023-06-22T14:34:06;8.83;;;6.30;;
7773;SDS011;3931;42.260;23.116;2023-06-22T14:36:32;9.10;;;6.57;;
7773;SDS011;3931;42.260;23.116;2023-06-22T14:38:58;17.37;;;6.20;;